createdAt,value
2019-05-10T00:00:31.946Z,11.33
2019-05-10T00:03:18.245Z,13.18
2019-05-10T00:06:04.553Z,10.85
2019-05-10T00:08:47.432Z,10.78
2019-05-10T00:11:18.809Z,9.23
2019-05-10T00:13:48.683Z,9.85
2019-05-10T00:16:16.938Z,12.75
2019-05-10T00:18:45.181Z,12.45
2019-05-10T00:21:13.449Z,10.85
2019-05-10T00:23:41.780Z,12.15
2019-05-10T00:26:10.021Z,13.48
2019-05-10T00:28:38.275Z,10.70
2019-05-10T00:31:06.546Z,12.60
2019-05-10T00:33:34.861Z,11.93
2019-05-10T00:36:03.118Z,12.73
2019-05-10T00:38:31.369Z,11.00
2019-05-10T00:40:59.625Z,10.25
2019-05-10T00:43:27.874Z,14.80
2019-05-10T00:45:56.129Z,10.18
2019-05-10T00:48:24.377Z,12.05
2019-05-10T00:50:52.637Z,9.13
2019-05-10T00:53:20.881Z,11.65
2019-05-10T00:55:49.172Z,11.00
2019-05-10T00:58:17.426Z,11.15
2019-05-10T01:00:45.681Z,10.93
2019-05-10T01:03:13.929Z,10.50
2019-05-10T01:05:42.187Z,11.48
2019-05-10T01:08:10.422Z,8.00
2019-05-10T01:10:38.677Z,10.10
2019-05-10T01:13:06.933Z,10.55
2019-05-10T01:15:35.193Z,6.87
2019-05-10T01:18:03.513Z,6.87
2019-05-10T01:20:31.765Z,8.65
2019-05-10T01:23:00.002Z,8.43
2019-05-10T01:25:35.265Z,6.62
2019-05-10T01:27:58.217Z,7.70
2019-05-10T01:30:26.476Z,8.35
2019-05-10T01:32:54.790Z,11.15
2019-05-10T01:35:23.057Z,7.87
2019-05-10T01:37:51.288Z,8.88
2019-05-10T01:40:19.537Z,7.47
2019-05-10T01:42:47.793Z,7.22
2019-05-10T01:45:16.024Z,7.78
2019-05-10T01:47:44.284Z,8.33
2019-05-10T01:50:12.599Z,10.23
2019-05-10T01:52:40.853Z,8.05
2019-05-10T01:55:09.094Z,8.75
2019-05-10T01:57:37.356Z,10.10
2019-05-10T02:00:06.377Z,9.40
2019-05-10T02:02:34.628Z,10.82
2019-05-10T02:05:02.883Z,9.55
2019-05-10T02:07:31.130Z,9.90
2019-05-10T02:09:59.374Z,11.83
2019-05-10T02:12:27.624Z,9.08
2019-05-10T02:14:55.873Z,10.28
2019-05-10T02:17:24.133Z,12.05
2019-05-10T02:19:52.377Z,11.08
2019-05-10T02:22:20.649Z,8.70
2019-05-10T02:24:48.899Z,10.13
2019-05-10T02:27:17.164Z,9.60
2019-05-10T02:29:45.472Z,9.08
2019-05-10T02:32:13.731Z,12.00
2019-05-10T02:34:41.973Z,15.78
2019-05-10T02:37:10.229Z,12.98
2019-05-10T02:39:38.470Z,12.00
2019-05-10T02:42:06.726Z,13.78
2019-05-10T02:44:34.977Z,13.98
2019-05-10T02:47:03.235Z,13.32
2019-05-10T02:49:31.491Z,16.67
2019-05-10T02:51:59.750Z,17.95
2019-05-10T02:54:28.002Z,14.95
2019-05-10T02:56:56.347Z,16.60
2019-05-10T02:59:25.021Z,16.20
2019-05-10T03:01:53.272Z,14.68
2019-05-10T03:04:22.106Z,15.00
2019-05-10T03:06:50.432Z,13.80
2019-05-10T03:09:18.668Z,15.70
2019-05-10T03:11:48.130Z,17.90
2019-05-10T03:14:18.519Z,15.03
2019-05-10T03:16:50.115Z,13.70
2019-05-10T03:19:21.031Z,15.03
2019-05-10T03:21:52.525Z,18.20
2019-05-10T03:24:21.050Z,19.17
2019-05-10T03:26:51.365Z,15.95
2019-05-10T03:29:19.274Z,18.90
2019-05-10T03:31:47.530Z,16.67
2019-05-10T03:34:15.861Z,15.08
2019-05-10T03:36:44.098Z,16.10
2019-05-10T03:39:12.355Z,12.50
2019-05-10T03:41:40.589Z,15.88
2019-05-10T03:44:08.842Z,17.62
2019-05-10T03:46:37.097Z,13.68
2019-05-10T03:49:05.350Z,15.32
2019-05-10T03:51:33.582Z,15.58
2019-05-10T03:54:01.845Z,12.25
2019-05-10T03:56:30.202Z,13.58
2019-05-10T03:58:58.489Z,15.23
2019-05-10T04:01:26.728Z,14.70
2019-05-10T04:03:54.989Z,14.65
2019-05-10T04:06:23.232Z,17.85
2019-05-10T04:08:51.481Z,12.05
2019-05-10T04:11:19.717Z,14.87
2019-05-10T04:13:47.974Z,15.23
2019-05-10T04:16:16.212Z,14.33
2019-05-10T04:18:44.465Z,13.80
2019-05-10T04:21:12.711Z,12.07
2019-05-10T04:23:40.955Z,9.28
2019-05-10T04:26:09.197Z,12.47
2019-05-10T04:28:37.461Z,11.75
2019-05-10T04:31:05.710Z,10.88
2019-05-10T04:33:33.965Z,9.08
2019-05-10T04:36:02.210Z,9.93
2019-05-10T04:38:30.541Z,9.50
2019-05-10T04:40:58.779Z,8.60
2019-05-10T04:43:27.058Z,8.08
2019-05-10T04:45:55.335Z,7.10
2019-05-10T04:48:23.589Z,6.53
2019-05-10T04:50:51.847Z,10.40
2019-05-10T04:53:20.083Z,6.85
2019-05-10T04:55:48.341Z,6.37
2019-05-10T04:58:16.580Z,9.23
2019-05-10T05:00:44.841Z,4.62
2019-05-10T05:03:13.079Z,6.47
2019-05-10T05:05:41.333Z,7.05
2019-05-10T05:08:09.586Z,9.13
2019-05-10T05:10:37.843Z,4.58
2019-05-10T05:13:06.080Z,5.35
2019-05-10T05:15:34.346Z,5.37
2019-05-10T05:18:02.670Z,7.87
2019-05-10T05:20:30.932Z,8.73
2019-05-10T05:22:59.185Z,5.83
2019-05-10T05:25:27.442Z,3.02
2019-05-10T05:28:07.410Z,4.92
2019-05-10T05:30:25.682Z,7.90
2019-05-10T05:32:56.778Z,5.08
2019-05-10T05:35:23.912Z,6.50
2019-05-10T05:37:52.158Z,5.15
2019-05-10T05:40:20.412Z,5.08
2019-05-10T05:42:48.652Z,4.25
2019-05-10T05:45:16.908Z,6.97
2019-05-10T05:47:45.216Z,5.50
2019-05-10T05:50:14.156Z,3.33
2019-05-10T05:52:42.415Z,4.97
2019-05-10T05:55:10.661Z,7.12
2019-05-10T05:57:38.904Z,4.15
2019-05-10T06:00:07.236Z,5.75
2019-05-10T06:02:43.957Z,3.65
2019-05-10T06:05:05.641Z,4.85
2019-05-10T06:07:38.063Z,5.42
2019-05-10T06:10:10.230Z,6.35
2019-05-10T06:12:35.464Z,3.98
2019-05-10T06:15:04.657Z,5.30
2019-05-10T06:17:32.918Z,4.12
2019-05-10T06:20:05.966Z,2.33
2019-05-10T06:22:31.125Z,5.45
2019-05-10T06:24:59.385Z,7.40
2019-05-10T06:27:27.680Z,8.30
2019-05-10T06:29:55.944Z,4.60
2019-05-10T06:32:24.193Z,8.68
2019-05-10T06:34:52.452Z,3.83
2019-05-10T06:37:20.708Z,6.40
2019-05-10T06:39:48.943Z,6.30
2019-05-10T06:42:17.194Z,8.20
2019-05-10T06:44:45.442Z,5.97
2019-05-10T06:47:13.688Z,4.83
2019-05-10T06:49:50.793Z,3.75
2019-05-10T06:52:11.904Z,6.67
2019-05-10T06:54:40.164Z,4.33
2019-05-10T06:57:11.140Z,6.62
2019-05-10T06:59:38.373Z,6.22
2019-05-10T07:02:06.630Z,7.62
2019-05-10T07:04:40.382Z,3.42
2019-05-10T07:07:09.728Z,6.28
2019-05-10T07:10:00.583Z,8.38
2019-05-10T07:12:09.438Z,7.75
2019-05-10T07:14:34.780Z,5.25
2019-05-10T07:17:04.404Z,4.97
2019-05-10T07:19:34.874Z,3.70
2019-05-10T07:22:02.840Z,4.00
2019-05-10T07:24:31.086Z,6.67
2019-05-10T07:27:02.045Z,5.67
2019-05-10T07:29:30.483Z,5.05
2019-05-10T07:31:59.276Z,4.55
2019-05-10T07:34:27.524Z,5.55
2019-05-10T07:36:55.781Z,5.10
2019-05-10T07:39:24.028Z,4.30
2019-05-10T07:41:52.303Z,4.20
2019-05-10T07:44:20.605Z,4.37
2019-05-10T07:46:54.317Z,2.75
2019-05-10T07:49:23.796Z,7.58
2019-05-10T07:51:48.814Z,3.42
2019-05-10T07:54:17.051Z,5.35
2019-05-10T07:56:47.665Z,4.80
2019-05-10T07:59:16.303Z,5.15
2019-05-10T08:01:48.847Z,4.58
2019-05-10T08:04:21.956Z,6.75
2019-05-10T08:06:47.780Z,6.12
2019-05-10T08:09:15.165Z,2.95
2019-05-10T08:11:43.408Z,12.25
2019-05-10T08:14:11.660Z,4.37
2019-05-10T08:16:39.902Z,6.15
2019-05-10T08:19:08.141Z,2.90
2019-05-10T08:21:38.029Z,3.50
2019-05-10T08:24:13.341Z,3.37
2019-05-10T08:26:36.248Z,5.33
2019-05-10T08:29:07.855Z,5.25
2019-05-10T08:31:40.568Z,2.52
2019-05-10T08:34:04.443Z,8.70
2019-05-10T08:36:37.266Z,2.70
2019-05-10T08:39:10.237Z,3.25
2019-05-10T08:41:33.808Z,2.80
2019-05-10T08:44:04.806Z,2.52
2019-05-10T08:46:40.067Z,7.28
2019-05-10T08:49:02.275Z,3.15
2019-05-10T08:51:32.288Z,4.92
2019-05-10T08:54:01.812Z,4.00
2019-05-10T08:56:33.076Z,1.27
2019-05-10T08:59:03.522Z,2.55
2019-05-10T09:01:33.529Z,3.58
2019-05-10T09:04:06.216Z,2.33
2019-05-10T09:06:32.580Z,2.33
2019-05-10T09:09:03.179Z,1.17
2019-05-10T09:11:32.598Z,2.15
2019-05-10T09:14:00.141Z,5.20
2019-05-10T09:16:29.134Z,3.83
2019-05-10T09:18:58.373Z,2.15
2019-05-10T09:21:26.605Z,2.52
2019-05-10T09:24:01.475Z,1.75
2019-05-10T09:26:24.825Z,4.20
2019-05-10T09:28:57.524Z,3.77
2019-05-10T09:31:25.714Z,3.15
2019-05-10T09:33:54.413Z,2.60
2019-05-10T09:36:30.768Z,3.37
2019-05-10T09:38:53.026Z,2.27
2019-05-10T09:41:22.563Z,2.95
2019-05-10T09:43:53.602Z,1.77
2019-05-10T09:46:22.887Z,1.17
2019-05-10T09:48:54.656Z,4.22
2019-05-10T09:51:28.075Z,2.95
2019-05-10T09:53:51.170Z,7.42
2019-05-10T09:56:19.408Z,3.12
2019-05-10T09:58:48.243Z,5.28
2019-05-10T10:01:21.231Z,9.43
2019-05-10T10:03:47.639Z,2.12
2019-05-10T10:06:16.192Z,2.75
2019-05-10T10:08:51.268Z,4.50
2019-05-10T10:11:18.106Z,3.08
2019-05-10T10:13:50.221Z,1.85
2019-05-10T10:16:14.857Z,3.40
2019-05-10T10:18:43.501Z,2.33
2019-05-10T10:21:13.192Z,1.80
2019-05-10T10:23:41.713Z,2.37
2019-05-10T10:26:12.553Z,3.33
2019-05-10T10:28:39.954Z,2.37
2019-05-10T10:31:08.582Z,3.15
2019-05-10T10:33:37.900Z,3.75
2019-05-10T10:36:09.938Z,2.27
2019-05-10T10:38:44.746Z,4.50
2019-05-10T10:41:08.230Z,7.78
2019-05-10T10:43:37.035Z,12.47
2019-05-10T10:46:12.065Z,11.22
2019-05-10T10:48:36.978Z,8.15
2019-05-10T10:51:07.895Z,3.77
2019-05-10T10:53:35.840Z,4.60
2019-05-10T10:56:04.141Z,4.83
2019-05-10T10:58:32.424Z,3.33
2019-05-10T11:01:00.656Z,3.47
2019-05-10T11:03:30.241Z,3.25
2019-05-10T11:05:58.871Z,2.47
2019-05-10T11:08:27.124Z,3.27
2019-05-10T11:10:55.370Z,1.45
2019-05-10T11:13:40.473Z,4.10
2019-05-10T11:15:53.588Z,7.67
2019-05-10T11:18:21.855Z,1.95
2019-05-10T11:20:53.935Z,5.28
2019-05-10T11:23:24.641Z,3.12
2019-05-10T11:25:56.273Z,3.60
2019-05-10T11:28:20.740Z,1.85
2019-05-10T11:30:51.164Z,10.50
2019-05-10T11:33:27.278Z,2.42
2019-05-10T11:35:51.323Z,1.32
2019-05-10T11:38:21.319Z,1.35
2019-05-10T11:40:49.248Z,1.00
2019-05-10T11:43:22.380Z,3.17
2019-05-10T11:45:47.460Z,5.12
2019-05-10T11:48:15.714Z,1.37
2019-05-10T11:50:43.968Z,1.20
2019-05-10T11:53:16.945Z,0.85
2019-05-10T11:55:43.657Z,1.00
2019-05-10T11:58:13.259Z,2.10
2019-05-10T12:00:41.836Z,3.50
2019-05-10T12:03:15.442Z,6.67
2019-05-10T12:05:42.428Z,3.42
2019-05-10T12:08:12.961Z,5.78
2019-05-10T12:10:43.095Z,5.40
2019-05-10T12:13:18.584Z,3.90
2019-05-10T12:15:42.962Z,5.22
2019-05-10T12:18:14.317Z,3.30
2019-05-10T12:20:54.332Z,3.37
2019-05-10T12:23:13.404Z,1.95
2019-05-10T12:25:57.336Z,1.72
2019-05-10T12:28:09.780Z,7.85
2019-05-10T12:30:38.034Z,9.30
2019-05-10T12:33:09.690Z,15.08
2019-05-10T12:35:41.871Z,12.75
2019-05-10T12:38:06.241Z,11.12
2019-05-10T12:40:35.727Z,8.83
2019-05-10T12:43:03.973Z,10.30
2019-05-10T12:45:32.241Z,10.00
2019-05-10T12:48:01.321Z,9.70
2019-05-10T12:50:30.023Z,9.75
2019-05-10T12:53:08.350Z,14.45
2019-05-10T12:55:28.236Z,6.67
2019-05-10T12:57:56.472Z,4.62
2019-05-10T13:00:24.728Z,4.90
2019-05-10T13:02:53.604Z,7.30
2019-05-10T13:05:31.181Z,6.72
2019-05-10T13:07:52.068Z,6.05
2019-05-10T13:10:20.383Z,6.70
2019-05-10T13:12:48.732Z,5.17
2019-05-10T13:15:16.994Z,7.33
2019-05-10T13:17:50.661Z,6.85
2019-05-10T13:20:15.880Z,6.42
2019-05-10T13:22:44.121Z,4.80
2019-05-10T13:25:13.245Z,4.33
2019-05-10T13:27:41.495Z,3.47
2019-05-10T13:30:09.987Z,4.33
2019-05-10T13:32:38.220Z,3.62
2019-05-10T13:35:06.484Z,5.83
2019-05-10T13:37:34.725Z,6.40
2019-05-10T13:40:07.567Z,7.20
2019-05-10T13:42:36.311Z,7.87
2019-05-10T13:45:04.984Z,8.70
2019-05-10T13:47:33.376Z,9.60
2019-05-10T13:50:01.656Z,13.60
2019-05-10T13:52:37.300Z,10.38
2019-05-10T13:54:59.938Z,10.13
2019-05-10T13:57:28.196Z,7.83
2019-05-10T13:59:57.369Z,8.08
2019-05-10T14:02:32.667Z,6.72
2019-05-10T14:04:56.294Z,6.70
2019-05-10T14:07:25.065Z,4.00
2019-05-10T14:09:53.369Z,6.65
2019-05-10T14:12:23.292Z,5.90
2019-05-10T14:14:55.383Z,7.83
2019-05-10T14:17:21.636Z,4.83
2019-05-10T14:19:49.998Z,4.87
2019-05-10T14:22:18.319Z,5.50
2019-05-10T14:24:52.177Z,9.83
2019-05-10T14:27:16.568Z,7.60
2019-05-10T14:29:44.833Z,5.85
2019-05-10T14:32:13.088Z,7.00
2019-05-10T14:34:44.129Z,7.08
2019-05-10T14:37:14.395Z,8.30
2019-05-10T14:39:41.325Z,9.20
2019-05-10T14:42:09.601Z,10.38
2019-05-10T14:44:38.846Z,8.63
2019-05-10T14:47:10.872Z,11.83
2019-05-10T14:49:42.035Z,11.65
2019-05-10T14:52:07.676Z,11.25
2019-05-10T14:54:43.834Z,14.73
2019-05-10T14:57:05.909Z,15.65
2019-05-10T14:59:34.160Z,14.05
2019-05-10T15:02:02.437Z,14.10
2019-05-10T15:04:44.291Z,19.27
2019-05-10T15:07:00.663Z,15.63
2019-05-10T15:09:28.920Z,17.07
2019-05-10T15:11:57.226Z,15.30
2019-05-10T15:14:25.472Z,17.07
2019-05-10T15:16:53.729Z,16.85
2019-05-10T15:19:26.292Z,16.62
2019-05-10T15:21:51.967Z,18.30
2019-05-10T15:24:20.208Z,12.50
2019-05-10T15:26:48.468Z,17.17
2019-05-10T15:29:22.429Z,15.08
2019-05-10T15:31:46.705Z,14.07
2019-05-10T15:34:14.949Z,12.88
2019-05-10T15:36:43.217Z,16.23
2019-05-10T15:39:11.461Z,10.53
2019-05-10T15:41:39.718Z,14.85
2019-05-10T15:44:07.961Z,10.43
2019-05-10T15:46:41.514Z,12.45
2019-05-10T15:49:06.185Z,15.83
2019-05-10T15:51:36.634Z,12.93
2019-05-10T15:54:07.207Z,11.55
2019-05-10T15:56:35.611Z,15.63
2019-05-10T15:59:04.424Z,11.00
2019-05-10T16:01:32.668Z,10.58
2019-05-10T16:04:00.926Z,11.28
2019-05-10T16:06:32.538Z,10.72
2019-05-10T16:09:02.970Z,11.28
2019-05-10T16:11:33.417Z,11.90
2019-05-10T16:14:01.834Z,12.33
2019-05-10T16:16:36.321Z,12.37
2019-05-10T16:19:00.148Z,13.70
2019-05-10T16:21:28.390Z,9.05
2019-05-10T16:23:56.640Z,8.28
2019-05-10T16:26:24.889Z,9.10
2019-05-10T16:29:01.050Z,9.83
2019-05-10T16:31:23.118Z,8.23
2019-05-10T16:33:53.636Z,12.73
2019-05-10T16:36:22.921Z,21.48
2019-05-10T16:38:51.316Z,10.23
2019-05-10T16:41:19.556Z,7.30
2019-05-10T16:43:51.618Z,11.40
2019-05-10T16:46:17.794Z,11.00
2019-05-10T16:48:46.138Z,7.62
2019-05-10T16:51:14.368Z,9.53
2019-05-10T16:53:43.791Z,7.55
2019-05-10T16:56:13.419Z,10.58
2019-05-10T16:58:47.408Z,9.13
2019-05-10T17:01:12.628Z,9.00
2019-05-10T17:03:40.876Z,10.18
2019-05-10T17:06:09.119Z,14.38
2019-05-10T17:08:38.813Z,12.68
2019-05-10T17:11:09.999Z,12.78
2019-05-10T17:13:41.613Z,10.32
2019-05-10T17:16:11.561Z,11.50
2019-05-10T17:18:37.338Z,9.85
2019-05-10T17:21:05.564Z,9.05
2019-05-10T17:23:33.819Z,11.08
2019-05-10T17:26:02.070Z,9.98
2019-05-10T17:28:35.387Z,10.82
2019-05-10T17:31:07.929Z,11.28
2019-05-10T17:33:30.324Z,10.65
2019-05-10T17:36:07.823Z,14.87
2019-05-10T17:38:31.632Z,14.87
2019-05-10T17:40:58.529Z,10.43
2019-05-10T17:43:26.784Z,12.58
2019-05-10T17:45:55.031Z,13.18
2019-05-10T17:48:23.272Z,16.45
2019-05-10T17:50:51.529Z,10.23
2019-05-10T17:53:19.778Z,14.33
2019-05-10T17:55:49.498Z,12.47
2019-05-10T17:58:18.002Z,10.82
2019-05-10T18:00:46.326Z,12.05
2019-05-10T18:03:14.643Z,13.38
2019-05-10T18:05:46.866Z,12.25
2019-05-10T18:08:12.877Z,10.08
2019-05-10T18:10:41.212Z,13.80
2019-05-10T18:13:09.467Z,15.18
2019-05-10T18:15:37.723Z,13.72
2019-05-10T18:18:05.973Z,13.72
2019-05-10T18:20:40.993Z,16.25
2019-05-10T18:23:04.220Z,17.07
2019-05-10T18:25:32.483Z,13.90
2019-05-10T18:28:00.730Z,16.02
2019-05-10T18:30:28.985Z,18.30
2019-05-10T18:32:57.233Z,17.73
2019-05-10T18:35:25.547Z,16.15
2019-05-10T18:37:59.423Z,23.07
2019-05-10T18:40:25.225Z,19.57
2019-05-10T18:42:57.983Z,20.30
2019-05-10T18:45:28.637Z,18.35
2019-05-10T18:47:53.746Z,18.50
2019-05-10T18:50:22.005Z,19.92
2019-05-10T18:52:50.257Z,22.10
2019-05-10T18:55:18.512Z,21.75
2019-05-10T18:58:06.196Z,23.90
2019-05-10T19:00:34.457Z,23.50
2019-05-10T19:03:02.728Z,25.27
2019-05-10T19:05:32.098Z,27.30
2019-05-10T19:08:05.415Z,44.58
2019-05-10T19:10:31.964Z,26.87
2019-05-10T19:13:03.479Z,29.48
2019-05-10T19:15:30.194Z,30.02
2019-05-10T19:17:58.437Z,29.18
2019-05-10T19:20:26.717Z,31.35
2019-05-10T19:22:55.029Z,28.00
2019-05-10T19:25:23.289Z,24.45
2019-05-10T19:27:51.544Z,29.70
2019-05-10T19:30:20.671Z,28.23
2019-05-10T19:32:51.197Z,27.07
2019-05-10T19:35:19.739Z,25.37
2019-05-10T19:37:47.992Z,27.48
2019-05-10T19:40:16.242Z,27.17
2019-05-10T19:42:44.935Z,30.50
2019-05-10T19:45:19.374Z,39.33
2019-05-10T19:47:43.544Z,33.75
2019-05-10T19:50:11.828Z,34.85
2019-05-10T19:52:40.073Z,31.25
2019-05-10T19:55:13.029Z,29.95
2019-05-10T19:57:38.331Z,29.70
2019-05-10T20:00:07.553Z,29.42
2019-05-10T20:02:35.801Z,24.90
2019-05-10T20:05:05.003Z,26.87
2019-05-10T20:07:45.518Z,26.57
2019-05-10T20:10:03.306Z,26.23
2019-05-10T20:12:31.625Z,26.75
2019-05-10T20:14:59.868Z,22.40
2019-05-10T20:17:28.161Z,24.98
2019-05-10T20:19:56.446Z,23.83
2019-05-10T20:22:24.692Z,20.57
2019-05-10T20:24:52.955Z,25.00
2019-05-10T20:27:21.212Z,24.95
2019-05-10T20:29:49.456Z,22.30
2019-05-10T20:32:17.817Z,23.90
2019-05-10T20:34:46.116Z,20.52
2019-05-10T20:37:14.358Z,23.02
2019-05-10T20:39:42.614Z,21.97
2019-05-10T20:42:10.873Z,22.85
2019-05-10T20:44:39.129Z,21.35
2019-05-10T20:47:07.390Z,26.30
2019-05-10T20:49:35.662Z,20.50
2019-05-10T20:52:03.974Z,22.67
2019-05-10T20:54:32.487Z,23.38
2019-05-10T20:57:00.815Z,23.80
2019-05-10T20:59:29.091Z,27.80
2019-05-10T21:01:57.400Z,27.25
2019-05-10T21:04:25.652Z,29.52
2019-05-10T21:06:53.913Z,25.43
2019-05-10T21:09:22.230Z,29.02
2019-05-10T21:11:50.546Z,27.42
2019-05-10T21:14:18.848Z,28.67
2019-05-10T21:16:47.103Z,32.08
2019-05-10T21:19:15.350Z,27.62
2019-05-10T21:21:43.605Z,27.30
2019-05-10T21:24:11.853Z,27.58
2019-05-10T21:26:40.112Z,28.27
2019-05-10T21:29:08.365Z,29.55
2019-05-10T21:31:36.624Z,32.38
2019-05-10T21:34:09.686Z,33.85
2019-05-10T21:36:34.850Z,29.27
2019-05-10T21:39:04.261Z,29.57
2019-05-10T21:41:32.520Z,30.52
2019-05-10T21:44:00.756Z,30.27
2019-05-10T21:46:29.018Z,29.63
2019-05-10T21:48:57.265Z,28.23
2019-05-10T21:51:25.532Z,30.50
2019-05-10T21:53:53.773Z,34.08
2019-05-10T21:56:22.102Z,29.80
2019-05-10T21:58:50.374Z,25.55
2019-05-10T22:01:18.632Z,29.27
2019-05-10T22:03:46.956Z,27.42
2019-05-10T22:06:15.197Z,26.27
2019-05-10T22:08:49.319Z,30.88
2019-05-10T22:11:13.430Z,28.32
2019-05-10T22:13:41.681Z,26.75
2019-05-10T22:16:09.924Z,27.07
2019-05-10T22:18:38.254Z,24.05
2019-05-10T22:21:06.488Z,17.98
2019-05-10T22:23:34.763Z,15.25
2019-05-10T22:26:03.067Z,14.35
2019-05-10T22:28:31.316Z,11.12
2019-05-10T22:30:59.556Z,9.50
2019-05-10T22:33:27.805Z,6.95
2019-05-10T22:35:56.044Z,12.80
2019-05-10T22:38:24.300Z,15.53
2019-05-10T22:40:52.540Z,25.02
2019-05-10T22:43:20.792Z,20.68
2019-05-10T22:45:49.045Z,27.17
2019-05-10T22:48:17.300Z,33.08
2019-05-10T22:50:45.546Z,30.30
2019-05-10T22:53:13.792Z,23.27
2019-05-10T22:55:42.058Z,21.75
2019-05-10T22:58:10.409Z,22.82
2019-05-10T23:00:38.645Z,23.70
2019-05-10T23:03:06.903Z,14.93
2019-05-10T23:05:35.148Z,17.82
2019-05-10T23:08:03.409Z,20.30
2019-05-10T23:10:31.655Z,26.12
2019-05-10T23:12:59.916Z,22.87
2019-05-10T23:15:28.157Z,22.58
2019-05-10T23:17:56.412Z,20.70
2019-05-10T23:20:24.660Z,23.02
2019-05-10T23:22:52.916Z,21.23
2019-05-10T23:25:21.156Z,20.70
2019-05-10T23:27:49.412Z,18.30
2019-05-10T23:30:17.660Z,20.52
2019-05-10T23:32:45.926Z,21.07
2019-05-10T23:35:14.156Z,19.52
2019-05-10T23:37:42.427Z,21.15
2019-05-10T23:40:10.745Z,18.32
2019-05-10T23:42:38.997Z,17.77
2019-05-10T23:45:07.244Z,17.17
2019-05-10T23:47:35.508Z,16.05
2019-05-10T23:50:04.213Z,17.17
2019-05-10T23:52:32.472Z,17.05
2019-05-10T23:55:00.712Z,20.17
2019-05-10T23:57:28.993Z,21.73
2019-05-10T23:59:57.253Z,19.32
